sensor_id;sensor_type;location;lat;lon;timestamp;P1;durP1;ratioP1;P2;durP2;ratioP2
14241;SDS011;7205;50.864;12.766;2023-02-28T00:02:27;4.73;;;4.23;;
14241;SDS011;7205;50.864;12.766;2023-02-28T00:04:54;5.10;;;4.60;;
14241;SDS011;7205;50.864;12.766;2023-02-28T00:07:26;7.07;;;4.57;;
14241;SDS011;7205;50.864;12.766;2023-02-28T00:09:53;5.57;;;4.27;;
14241;SDS011;7205;50.864;12.766;2023-02-28T00:12:20;4.67;;;4.27;;
14241;SDS011;7205;50.864;12.766;2023-02-28T00:14:46;4.77;;;4.03;;
14241;SDS011;7205;50.864;12.766;2023-02-28T00:17:13;4.33;;;3.93;;
14241;SDS011;7205;50.864;12.766;2023-02-28T00:19:42;4.60;;;4.20;;
14241;SDS011;7205;50.864;12.766;2023-02-28T00:22:09;5.30;;;4.10;;
14241;SDS011;7205;50.864;12.766;2023-02-28T00:24:36;4.10;;;3.60;;
14241;SDS011;7205;50.864;12.766;2023-02-28T00:27:03;4.97;;;4.47;;
14241;SDS011;7205;50.864;12.766;2023-02-28T00:29:30;4.17;;;3.80;;
14241;SDS011;7205;50.864;12.766;2023-02-28T00:31:57;4.63;;;4.23;;
14241;SDS011;7205;50.864;12.766;2023-02-28T00:34:24;4.63;;;3.87;;
14241;SDS011;7205;50.864;12.766;2023-02-28T00:36:53;5.53;;;4.43;;
14241;SDS011;7205;50.864;12.766;2023-02-28T00:39:20;4.30;;;4.00;;
14241;SDS011;7205;50.864;12.766;2023-02-28T00:41:47;7.27;;;3.90;;
14241;SDS011;7205;50.864;12.766;2023-02-28T00:44:14;3.80;;;3.40;;
14241;SDS011;7205;50.864;12.766;2023-02-28T00:46:41;4.17;;;3.87;;
14241;SDS011;7205;50.864;12.766;2023-02-28T00:49:08;4.60;;;4.10;;
14241;SDS011;7205;50.864;12.766;2023-02-28T00:51:35;5.70;;;3.63;;
14241;SDS011;7205;50.864;12.766;2023-02-28T00:54:03;3.83;;;3.50;;
14241;SDS011;7205;50.864;12.766;2023-02-28T00:56:30;4.10;;;3.70;;
14241;SDS011;7205;50.864;12.766;2023-02-28T00:58:57;3.90;;;3.47;;
14241;SDS011;7205;50.864;12.766;2023-02-28T01:01:24;5.00;;;3.50;;
14241;SDS011;7205;50.864;12.766;2023-02-28T01:03:51;4.97;;;3.50;;
14241;SDS011;7205;50.864;12.766;2023-02-28T01:06:18;3.93;;;3.50;;
14241;SDS011;7205;50.864;12.766;2023-02-28T01:08:44;4.23;;;3.83;;
14241;SDS011;7205;50.864;12.766;2023-02-28T01:11:14;3.93;;;3.53;;
14241;SDS011;7205;50.864;12.766;2023-02-28T01:13:43;5.93;;;3.80;;
14241;SDS011;7205;50.864;12.766;2023-02-28T01:16:11;3.83;;;3.53;;
14241;SDS011;7205;50.864;12.766;2023-02-28T01:18:39;3.73;;;3.43;;
14241;SDS011;7205;50.864;12.766;2023-02-28T01:21:07;3.20;;;2.90;;
14241;SDS011;7205;50.864;12.766;2023-02-28T01:23:36;4.97;;;3.37;;
14241;SDS011;7205;50.864;12.766;2023-02-28T01:26:04;3.63;;;3.20;;
14241;SDS011;7205;50.864;12.766;2023-02-28T01:28:33;3.03;;;2.73;;
14241;SDS011;7205;50.864;12.766;2023-02-28T01:31:00;4.10;;;3.43;;
14241;SDS011;7205;50.864;12.766;2023-02-28T01:33:27;3.57;;;3.27;;
14241;SDS011;7205;50.864;12.766;2023-02-28T01:35:57;3.10;;;2.80;;
14241;SDS011;7205;50.864;12.766;2023-02-28T01:38:24;3.87;;;3.47;;
14241;SDS011;7205;50.864;12.766;2023-02-28T01:40:53;3.23;;;3.03;;
14241;SDS011;7205;50.864;12.766;2023-02-28T01:43:21;3.63;;;3.17;;
14241;SDS011;7205;50.864;12.766;2023-02-28T01:45:51;3.50;;;3.20;;
14241;SDS011;7205;50.864;12.766;2023-02-28T01:48:18;4.33;;;3.67;;
14241;SDS011;7205;50.864;12.766;2023-02-28T01:50:47;4.40;;;3.77;;
14241;SDS011;7205;50.864;12.766;2023-02-28T01:53:15;3.67;;;3.37;;
14241;SDS011;7205;50.864;12.766;2023-02-28T01:55:45;4.30;;;3.90;;
14241;SDS011;7205;50.864;12.766;2023-02-28T01:58:14;4.10;;;3.70;;
14241;SDS011;7205;50.864;12.766;2023-02-28T02:00:42;3.70;;;3.40;;
14241;SDS011;7205;50.864;12.766;2023-02-28T02:03:11;4.87;;;4.47;;
14241;SDS011;7205;50.864;12.766;2023-02-28T02:05:41;3.70;;;3.40;;
14241;SDS011;7205;50.864;12.766;2023-02-28T02:08:14;5.80;;;3.77;;
14241;SDS011;7205;50.864;12.766;2023-02-28T02:10:48;4.27;;;3.87;;
14241;SDS011;7205;50.864;12.766;2023-02-28T02:13:25;5.10;;;4.33;;
14241;SDS011;7205;50.864;12.766;2023-02-28T02:16:00;4.50;;;4.10;;
14241;SDS011;7205;50.864;12.766;2023-02-28T02:18:36;4.53;;;4.13;;
14241;SDS011;7205;50.864;12.766;2023-02-28T02:24:20;4.37;;;3.97;;
14241;SDS011;7205;50.864;12.766;2023-02-28T02:27:17;5.17;;;4.67;;
14241;SDS011;7205;50.864;12.766;2023-02-28T02:32:58;5.63;;;4.57;;
14241;SDS011;7205;50.864;12.766;2023-02-28T02:35:36;4.43;;;4.03;;
14241;SDS011;7205;50.864;12.766;2023-02-28T02:38:10;4.47;;;4.07;;
14241;SDS011;7205;50.864;12.766;2023-02-28T02:40:43;5.53;;;4.57;;
14241;SDS011;7205;50.864;12.766;2023-02-28T02:43:17;5.57;;;4.40;;
14241;SDS011;7205;50.864;12.766;2023-02-28T02:45:48;4.97;;;4.47;;
14241;SDS011;7205;50.864;12.766;2023-02-28T02:48:21;4.97;;;4.47;;
14241;SDS011;7205;50.864;12.766;2023-02-28T02:50:55;4.93;;;4.53;;
14241;SDS011;7205;50.864;12.766;2023-02-28T02:53:25;4.77;;;4.37;;
14241;SDS011;7205;50.864;12.766;2023-02-28T02:55:58;4.57;;;4.17;;
14241;SDS011;7205;50.864;12.766;2023-02-28T02:58:29;4.87;;;4.37;;
14241;SDS011;7205;50.864;12.766;2023-02-28T03:01:00;5.47;;;4.30;;
14241;SDS011;7205;50.864;12.766;2023-02-28T03:03:30;5.37;;;4.10;;
14241;SDS011;7205;50.864;12.766;2023-02-28T03:06:01;6.53;;;4.50;;
14241;SDS011;7205;50.864;12.766;2023-02-28T03:08:29;5.47;;;4.40;;
14241;SDS011;7205;50.864;12.766;2023-02-28T03:11:01;5.30;;;4.30;;
14241;SDS011;7205;50.864;12.766;2023-02-28T03:16:49;5.37;;;4.17;;
14241;SDS011;7205;50.864;12.766;2023-02-28T03:19:30;4.57;;;4.10;;
14241;SDS011;7205;50.864;12.766;2023-02-28T03:22:10;4.80;;;4.27;;
14241;SDS011;7205;50.864;12.766;2023-02-28T03:24:56;4.17;;;3.77;;
14241;SDS011;7205;50.864;12.766;2023-02-28T03:27:34;4.83;;;4.07;;
14241;SDS011;7205;50.864;12.766;2023-02-28T03:30:08;4.87;;;4.47;;
14241;SDS011;7205;50.864;12.766;2023-02-28T03:32:40;4.53;;;4.10;;
14241;SDS011;7205;50.864;12.766;2023-02-28T03:35:13;5.23;;;4.60;;
14241;SDS011;7205;50.864;12.766;2023-02-28T03:37:49;5.67;;;5.13;;
14241;SDS011;7205;50.864;12.766;2023-02-28T03:40:19;6.40;;;5.60;;
14241;SDS011;7205;50.864;12.766;2023-02-28T03:42:50;5.63;;;5.07;;
14241;SDS011;7205;50.864;12.766;2023-02-28T03:45:22;6.07;;;5.40;;
14241;SDS011;7205;50.864;12.766;2023-02-28T03:47:53;5.53;;;5.03;;
14241;SDS011;7205;50.864;12.766;2023-02-28T03:50:22;6.03;;;5.40;;
14241;SDS011;7205;50.864;12.766;2023-02-28T03:52:55;8.07;;;5.93;;
14241;SDS011;7205;50.864;12.766;2023-02-28T03:55:30;6.20;;;5.33;;
14241;SDS011;7205;50.864;12.766;2023-02-28T03:58:04;6.20;;;5.60;;
14241;SDS011;7205;50.864;12.766;2023-02-28T04:00:40;6.30;;;5.70;;
14241;SDS011;7205;50.864;12.766;2023-02-28T04:03:11;7.27;;;5.70;;
14241;SDS011;7205;50.864;12.766;2023-02-28T04:05:45;8.30;;;5.90;;
14241;SDS011;7205;50.864;12.766;2023-02-28T04:08:17;6.30;;;5.70;;
14241;SDS011;7205;50.864;12.766;2023-02-28T04:10:45;7.00;;;6.30;;
14241;SDS011;7205;50.864;12.766;2023-02-28T04:13:17;6.90;;;6.10;;
14241;SDS011;7205;50.864;12.766;2023-02-28T04:15:43;7.90;;;6.67;;
14241;SDS011;7205;50.864;12.766;2023-02-28T04:18:10;7.60;;;6.57;;
14241;SDS011;7205;50.864;12.766;2023-02-28T04:20:37;8.57;;;7.17;;
14241;SDS011;7205;50.864;12.766;2023-02-28T04:23:04;8.43;;;6.90;;
14241;SDS011;7205;50.864;12.766;2023-02-28T04:25:32;7.67;;;6.87;;
14241;SDS011;7205;50.864;12.766;2023-02-28T04:27:59;9.07;;;7.47;;
14241;SDS011;7205;50.864;12.766;2023-02-28T04:30:26;8.87;;;6.93;;
14241;SDS011;7205;50.864;12.766;2023-02-28T04:32:54;9.27;;;7.50;;
14241;SDS011;7205;50.864;12.766;2023-02-28T04:35:21;7.97;;;7.17;;
14241;SDS011;7205;50.864;12.766;2023-02-28T04:37:48;12.30;;;7.83;;
14241;SDS011;7205;50.864;12.766;2023-02-28T04:40:15;9.00;;;7.57;;
14241;SDS011;7205;50.864;12.766;2023-02-28T04:42:44;8.10;;;7.30;;
14241;SDS011;7205;50.864;12.766;2023-02-28T04:45:11;8.10;;;7.30;;
14241;SDS011;7205;50.864;12.766;2023-02-28T04:47:38;7.90;;;7.10;;
14241;SDS011;7205;50.864;12.766;2023-02-28T04:50:05;8.93;;;7.73;;
14241;SDS011;7205;50.864;12.766;2023-02-28T04:52:32;8.50;;;7.17;;
14241;SDS011;7205;50.864;12.766;2023-02-28T04:54:59;7.67;;;6.90;;
14241;SDS011;7205;50.864;12.766;2023-02-28T04:57:26;7.93;;;6.77;;
14241;SDS011;7205;50.864;12.766;2023-02-28T04:59:55;9.73;;;7.83;;
14241;SDS011;7205;50.864;12.766;2023-02-28T05:02:22;9.43;;;8.10;;
14241;SDS011;7205;50.864;12.766;2023-02-28T05:04:48;9.43;;;8.43;;
14241;SDS011;7205;50.864;12.766;2023-02-28T05:07:15;9.67;;;8.47;;
14241;SDS011;7205;50.864;12.766;2023-02-28T05:09:42;9.23;;;6.97;;
14241;SDS011;7205;50.864;12.766;2023-02-28T05:12:09;8.57;;;7.33;;
14241;SDS011;7205;50.864;12.766;2023-02-28T05:14:36;9.37;;;7.60;;
14241;SDS011;7205;50.864;12.766;2023-02-28T05:17:05;8.77;;;7.87;;
14241;SDS011;7205;50.864;12.766;2023-02-28T05:19:31;9.73;;;8.37;;
14241;SDS011;7205;50.864;12.766;2023-02-28T05:21:58;8.70;;;7.57;;
14241;SDS011;7205;50.864;12.766;2023-02-28T05:24:25;8.93;;;7.80;;
14241;SDS011;7205;50.864;12.766;2023-02-28T05:26:53;8.53;;;6.93;;
14241;SDS011;7205;50.864;12.766;2023-02-28T05:29:20;8.47;;;7.53;;
14241;SDS011;7205;50.864;12.766;2023-02-28T05:31:47;8.97;;;7.57;;
14241;SDS011;7205;50.864;12.766;2023-02-28T05:34:16;10.20;;;7.90;;
14241;SDS011;7205;50.864;12.766;2023-02-28T05:36:42;9.70;;;7.70;;
14241;SDS011;7205;50.864;12.766;2023-02-28T05:39:09;8.33;;;7.53;;
14241;SDS011;7205;50.864;12.766;2023-02-28T05:41:38;8.73;;;7.83;;
14241;SDS011;7205;50.864;12.766;2023-02-28T05:44:06;10.87;;;8.60;;
14241;SDS011;7205;50.864;12.766;2023-02-28T05:46:33;9.80;;;8.03;;
14241;SDS011;7205;50.864;12.766;2023-02-28T05:49:00;9.13;;;7.67;;
14241;SDS011;7205;50.864;12.766;2023-02-28T05:51:29;13.27;;;8.40;;
14241;SDS011;7205;50.864;12.766;2023-02-28T05:53:58;10.50;;;8.23;;
14241;SDS011;7205;50.864;12.766;2023-02-28T05:56:26;11.50;;;8.43;;
14241;SDS011;7205;50.864;12.766;2023-02-28T05:58:54;11.87;;;8.40;;
14241;SDS011;7205;50.864;12.766;2023-02-28T06:01:22;11.57;;;8.47;;
14241;SDS011;7205;50.864;12.766;2023-02-28T06:03:59;9.83;;;7.97;;
14241;SDS011;7205;50.864;12.766;2023-02-28T06:06:27;9.60;;;8.30;;
14241;SDS011;7205;50.864;12.766;2023-02-28T06:08:59;10.60;;;8.43;;
14241;SDS011;7205;50.864;12.766;2023-02-28T06:11:27;9.30;;;8.00;;
14241;SDS011;7205;50.864;12.766;2023-02-28T06:13:54;10.90;;;8.73;;
14241;SDS011;7205;50.864;12.766;2023-02-28T06:16:22;9.43;;;8.40;;
14241;SDS011;7205;50.864;12.766;2023-02-28T06:18:49;8.87;;;7.43;;
14241;SDS011;7205;50.864;12.766;2023-02-28T06:21:18;10.27;;;8.90;;
14241;SDS011;7205;50.864;12.766;2023-02-28T06:23:48;13.30;;;8.77;;
14241;SDS011;7205;50.864;12.766;2023-02-28T06:26:16;12.27;;;8.90;;
14241;SDS011;7205;50.864;12.766;2023-02-28T06:28:48;9.97;;;8.93;;
14241;SDS011;7205;50.864;12.766;2023-02-28T06:31:16;11.67;;;8.27;;
14241;SDS011;7205;50.864;12.766;2023-02-28T06:33:48;10.13;;;8.73;;
14241;SDS011;7205;50.864;12.766;2023-02-28T06:36:15;10.87;;;8.27;;
14241;SDS011;7205;50.864;12.766;2023-02-28T06:38:42;11.67;;;8.73;;
14241;SDS011;7205;50.864;12.766;2023-02-28T06:41:11;9.93;;;8.53;;
14241;SDS011;7205;50.864;12.766;2023-02-28T06:43:39;10.83;;;8.57;;
14241;SDS011;7205;50.864;12.766;2023-02-28T06:46:07;9.73;;;8.43;;
14241;SDS011;7205;50.864;12.766;2023-02-28T06:48:36;9.67;;;8.20;;
14241;SDS011;7205;50.864;12.766;2023-02-28T06:51:04;11.33;;;9.27;;
14241;SDS011;7205;50.864;12.766;2023-02-28T06:53:32;10.47;;;8.53;;
14241;SDS011;7205;50.864;12.766;2023-02-28T06:56:05;13.17;;;8.50;;
14241;SDS011;7205;50.864;12.766;2023-02-28T06:58:58;12.00;;;8.53;;
14241;SDS011;7205;50.864;12.766;2023-02-28T07:01:28;13.50;;;10.90;;
14241;SDS011;7205;50.864;12.766;2023-02-28T07:03:57;13.80;;;9.90;;
14241;SDS011;7205;50.864;12.766;2023-02-28T07:06:27;8.80;;;7.90;;
14241;SDS011;7205;50.864;12.766;2023-02-28T07:08:57;10.70;;;8.63;;
14241;SDS011;7205;50.864;12.766;2023-02-28T07:11:26;9.40;;;7.97;;
14241;SDS011;7205;50.864;12.766;2023-02-28T07:13:54;8.90;;;7.70;;
14241;SDS011;7205;50.864;12.766;2023-02-28T07:16:23;9.20;;;7.93;;
14241;SDS011;7205;50.864;12.766;2023-02-28T07:18:52;10.87;;;8.47;;
14241;SDS011;7205;50.864;12.766;2023-02-28T07:21:19;8.83;;;7.77;;
14241;SDS011;7205;50.864;12.766;2023-02-28T07:23:46;10.57;;;8.20;;
14241;SDS011;7205;50.864;12.766;2023-02-28T07:26:13;11.10;;;8.00;;
14241;SDS011;7205;50.864;12.766;2023-02-28T07:28:42;9.43;;;7.83;;
14241;SDS011;7205;50.864;12.766;2023-02-28T07:31:15;9.07;;;7.80;;
14241;SDS011;7205;50.864;12.766;2023-02-28T07:33:45;10.37;;;8.37;;
14241;SDS011;7205;50.864;12.766;2023-02-28T07:36:13;9.43;;;7.57;;
14241;SDS011;7205;50.864;12.766;2023-02-28T07:38:41;8.17;;;7.37;;
14241;SDS011;7205;50.864;12.766;2023-02-28T07:41:08;8.10;;;7.27;;
14241;SDS011;7205;50.864;12.766;2023-02-28T07:43:36;9.20;;;7.50;;
14241;SDS011;7205;50.864;12.766;2023-02-28T07:46:03;9.83;;;7.70;;
14241;SDS011;7205;50.864;12.766;2023-02-28T07:48:34;11.13;;;7.40;;
14241;SDS011;7205;50.864;12.766;2023-02-28T07:51:33;11.77;;;7.70;;
14241;SDS011;7205;50.864;12.766;2023-02-28T07:54:11;9.53;;;7.90;;
14241;SDS011;7205;50.864;12.766;2023-02-28T07:57:22;10.07;;;7.80;;
14241;SDS011;7205;50.864;12.766;2023-02-28T07:59:49;8.63;;;7.00;;
14241;SDS011;7205;50.864;12.766;2023-02-28T08:02:17;10.93;;;7.53;;
14241;SDS011;7205;50.864;12.766;2023-02-28T08:04:44;8.63;;;7.47;;
14241;SDS011;7205;50.864;12.766;2023-02-28T08:07:15;10.53;;;7.67;;
14241;SDS011;7205;50.864;12.766;2023-02-28T08:09:43;8.07;;;7.27;;
14241;SDS011;7205;50.864;12.766;2023-02-28T08:12:10;8.47;;;7.50;;
14241;SDS011;7205;50.864;12.766;2023-02-28T08:14:38;10.07;;;7.17;;
14241;SDS011;7205;50.864;12.766;2023-02-28T08:17:09;8.43;;;6.80;;
14241;SDS011;7205;50.864;12.766;2023-02-28T08:19:36;9.33;;;7.10;;
14241;SDS011;7205;50.864;12.766;2023-02-28T08:22:04;9.03;;;7.13;;
14241;SDS011;7205;50.864;12.766;2023-02-28T08:24:32;8.73;;;6.57;;
14241;SDS011;7205;50.864;12.766;2023-02-28T08:27:00;8.80;;;6.53;;
14241;SDS011;7205;50.864;12.766;2023-02-28T08:29:27;9.27;;;6.83;;
14241;SDS011;7205;50.864;12.766;2023-02-28T08:31:55;8.00;;;6.63;;
14241;SDS011;7205;50.864;12.766;2023-02-28T08:34:25;7.30;;;6.47;;
14241;SDS011;7205;50.864;12.766;2023-02-28T08:36:52;8.70;;;6.73;;
14241;SDS011;7205;50.864;12.766;2023-02-28T08:39:32;7.50;;;6.23;;
14241;SDS011;7205;50.864;12.766;2023-02-28T08:42:04;8.57;;;6.13;;
14241;SDS011;7205;50.864;12.766;2023-02-28T08:44:31;6.90;;;5.60;;
14241;SDS011;7205;50.864;12.766;2023-02-28T08:46:58;8.10;;;6.00;;
14241;SDS011;7205;50.864;12.766;2023-02-28T08:49:25;7.23;;;6.10;;
14241;SDS011;7205;50.864;12.766;2023-02-28T08:51:52;9.40;;;6.80;;
14241;SDS011;7205;50.864;12.766;2023-02-28T08:54:20;7.33;;;5.70;;
14241;SDS011;7205;50.864;12.766;2023-02-28T08:56:51;8.10;;;5.27;;
14241;SDS011;7205;50.864;12.766;2023-02-28T08:59:18;6.17;;;5.57;;
14241;SDS011;7205;50.864;12.766;2023-02-28T09:01:50;5.93;;;5.10;;
14241;SDS011;7205;50.864;12.766;2023-02-28T09:04:17;7.07;;;5.13;;
14241;SDS011;7205;50.864;12.766;2023-02-28T09:06:44;6.93;;;5.63;;
14241;SDS011;7205;50.864;12.766;2023-02-28T09:09:11;6.53;;;5.77;;
14241;SDS011;7205;50.864;12.766;2023-02-28T09:11:38;8.23;;;5.57;;
14241;SDS011;7205;50.864;12.766;2023-02-28T09:14:06;7.23;;;5.43;;
14241;SDS011;7205;50.864;12.766;2023-02-28T09:16:43;7.27;;;5.70;;
14241;SDS011;7205;50.864;12.766;2023-02-28T09:27:58;6.63;;;5.67;;
14241;SDS011;7205;50.864;12.766;2023-02-28T09:40:54;5.60;;;5.00;;
14241;SDS011;7205;50.864;12.766;2023-02-28T09:44:20;6.53;;;5.33;;
14241;SDS011;7205;50.864;12.766;2023-02-28T09:47:44;5.03;;;4.50;;
14241;SDS011;7205;50.864;12.766;2023-02-28T09:58:44;6.73;;;4.80;;
14241;SDS011;7205;50.864;12.766;2023-02-28T10:01:56;5.27;;;4.43;;
14241;SDS011;7205;50.864;12.766;2023-02-28T10:04:53;5.37;;;4.60;;
14241;SDS011;7205;50.864;12.766;2023-02-28T10:15:50;6.10;;;4.50;;
14241;SDS011;7205;50.864;12.766;2023-02-28T10:18:24;5.83;;;4.57;;
14241;SDS011;7205;50.864;12.766;2023-02-28T10:20:58;5.33;;;4.50;;
14241;SDS011;7205;50.864;12.766;2023-02-28T10:23:31;6.10;;;4.07;;
14241;SDS011;7205;50.864;12.766;2023-02-28T10:26:05;5.00;;;4.30;;
14241;SDS011;7205;50.864;12.766;2023-02-28T10:28:40;4.77;;;4.10;;
14241;SDS011;7205;50.864;12.766;2023-02-28T10:31:20;4.63;;;4.23;;
14241;SDS011;7205;50.864;12.766;2023-02-28T10:36:59;6.47;;;4.90;;
14241;SDS011;7205;50.864;12.766;2023-02-28T10:39:57;6.10;;;4.53;;
14241;SDS011;7205;50.864;12.766;2023-02-28T10:42:26;5.00;;;4.60;;
14241;SDS011;7205;50.864;12.766;2023-02-28T10:45:13;4.83;;;4.30;;
14241;SDS011;7205;50.864;12.766;2023-02-28T10:47:53;5.00;;;4.50;;
14241;SDS011;7205;50.864;12.766;2023-02-28T10:50:26;5.23;;;4.73;;
14241;SDS011;7205;50.864;12.766;2023-02-28T10:52:57;5.87;;;4.80;;
14241;SDS011;7205;50.864;12.766;2023-02-28T10:58:53;6.73;;;6.03;;
14241;SDS011;7205;50.864;12.766;2023-02-28T11:01:22;5.57;;;4.60;;
14241;SDS011;7205;50.864;12.766;2023-02-28T11:03:52;5.17;;;4.60;;
14241;SDS011;7205;50.864;12.766;2023-02-28T11:06:20;6.23;;;5.27;;
14241;SDS011;7205;50.864;12.766;2023-02-28T11:08:49;6.00;;;4.77;;
14241;SDS011;7205;50.864;12.766;2023-02-28T11:11:19;5.80;;;5.07;;
14241;SDS011;7205;50.864;12.766;2023-02-28T11:13:50;6.17;;;4.93;;
14241;SDS011;7205;50.864;12.766;2023-02-28T11:16:19;5.87;;;4.73;;
14241;SDS011;7205;50.864;12.766;2023-02-28T11:18:48;5.67;;;5.13;;
14241;SDS011;7205;50.864;12.766;2023-02-28T11:21:18;5.47;;;4.73;;
14241;SDS011;7205;50.864;12.766;2023-02-28T11:23:49;5.97;;;4.27;;
14241;SDS011;7205;50.864;12.766;2023-02-28T11:29:09;7.17;;;4.70;;
14241;SDS011;7205;50.864;12.766;2023-02-28T11:31:41;5.77;;;5.03;;
14241;SDS011;7205;50.864;12.766;2023-02-28T11:36:54;5.93;;;4.80;;
14241;SDS011;7205;50.864;12.766;2023-02-28T11:39:23;6.07;;;5.30;;
14241;SDS011;7205;50.864;12.766;2023-02-28T11:41:55;5.27;;;4.77;;
14241;SDS011;7205;50.864;12.766;2023-02-28T11:44:40;5.57;;;5.07;;
14241;SDS011;7205;50.864;12.766;2023-02-28T11:47:23;6.07;;;5.47;;
14241;SDS011;7205;50.864;12.766;2023-02-28T11:50:04;6.47;;;4.80;;
14241;SDS011;7205;50.864;12.766;2023-02-28T11:56:31;5.00;;;4.23;;
14241;SDS011;7205;50.864;12.766;2023-02-28T11:59:10;6.27;;;4.93;;
14241;SDS011;7205;50.864;12.766;2023-02-28T12:05:23;5.70;;;5.10;;
14241;SDS011;7205;50.864;12.766;2023-02-28T12:11:37;5.10;;;4.70;;
14241;SDS011;7205;50.864;12.766;2023-02-28T12:17:22;5.63;;;5.00;;
14241;SDS011;7205;50.864;12.766;2023-02-28T12:20:02;7.73;;;5.70;;
14241;SDS011;7205;50.864;12.766;2023-02-28T12:22:51;11.47;;;7.47;;
14241;SDS011;7205;50.864;12.766;2023-02-28T12:25:41;8.67;;;7.00;;
14241;SDS011;7205;50.864;12.766;2023-02-28T12:28:25;7.47;;;6.63;;
14241;SDS011;7205;50.864;12.766;2023-02-28T12:30:58;7.40;;;6.23;;
14241;SDS011;7205;50.864;12.766;2023-02-28T12:33:32;6.10;;;5.50;;
14241;SDS011;7205;50.864;12.766;2023-02-28T12:36:10;8.27;;;5.60;;
14241;SDS011;7205;50.864;12.766;2023-02-28T12:38:51;13.03;;;7.00;;
14241;SDS011;7205;50.864;12.766;2023-02-28T12:42:00;8.33;;;5.53;;
14241;SDS011;7205;50.864;12.766;2023-02-28T12:45:09;6.97;;;6.00;;
14241;SDS011;7205;50.864;12.766;2023-02-28T12:48:20;8.00;;;6.00;;
14241;SDS011;7205;50.864;12.766;2023-02-28T12:51:18;7.47;;;5.67;;
14241;SDS011;7205;50.864;12.766;2023-02-28T12:54:00;7.00;;;5.30;;
14241;SDS011;7205;50.864;12.766;2023-02-28T12:56:42;6.27;;;5.67;;
14241;SDS011;7205;50.864;12.766;2023-02-28T12:59:26;7.57;;;6.43;;
14241;SDS011;7205;50.864;12.766;2023-02-28T13:08:42;7.07;;;5.70;;
14241;SDS011;7205;50.864;12.766;2023-02-28T13:11:31;6.97;;;6.10;;
14241;SDS011;7205;50.864;12.766;2023-02-28T13:14:04;7.97;;;5.83;;
14241;SDS011;7205;50.864;12.766;2023-02-28T13:19:35;6.53;;;5.93;;
14241;SDS011;7205;50.864;12.766;2023-02-28T13:22:04;7.57;;;6.07;;
14241;SDS011;7205;50.864;12.766;2023-02-28T13:24:43;7.67;;;6.87;;
14241;SDS011;7205;50.864;12.766;2023-02-28T13:33:29;7.67;;;6.07;;
14241;SDS011;7205;50.864;12.766;2023-02-28T13:36:05;7.60;;;6.23;;
14241;SDS011;7205;50.864;12.766;2023-02-28T13:38:42;6.97;;;6.20;;
14241;SDS011;7205;50.864;12.766;2023-02-28T13:41:44;7.83;;;7.03;;
14241;SDS011;7205;50.864;12.766;2023-02-28T13:44:15;8.97;;;7.67;;
14241;SDS011;7205;50.864;12.766;2023-02-28T13:47:21;7.67;;;6.87;;
14241;SDS011;7205;50.864;12.766;2023-02-28T13:50:05;7.93;;;6.60;;
14241;SDS011;7205;50.864;12.766;2023-02-28T13:52:43;7.13;;;6.43;;
14241;SDS011;7205;50.864;12.766;2023-02-28T13:55:22;10.50;;;6.80;;
14241;SDS011;7205;50.864;12.766;2023-02-28T13:58:02;7.10;;;6.40;;
14241;SDS011;7205;50.864;12.766;2023-02-28T14:00:43;9.63;;;6.70;;
14241;SDS011;7205;50.864;12.766;2023-02-28T14:03:32;7.50;;;6.70;;
14241;SDS011;7205;50.864;12.766;2023-02-28T14:06:23;9.77;;;6.70;;
14241;SDS011;7205;50.864;12.766;2023-02-28T14:08:57;9.43;;;7.80;;
14241;SDS011;7205;50.864;12.766;2023-02-28T14:11:32;11.27;;;8.10;;
14241;SDS011;7205;50.864;12.766;2023-02-28T14:17:55;10.17;;;8.00;;
14241;SDS011;7205;50.864;12.766;2023-02-28T14:20:45;9.30;;;7.00;;
14241;SDS011;7205;50.864;12.766;2023-02-28T14:23:18;8.63;;;7.67;;
14241;SDS011;7205;50.864;12.766;2023-02-28T14:26:18;9.53;;;7.20;;
14241;SDS011;7205;50.864;12.766;2023-02-28T14:29:11;7.93;;;7.10;;
14241;SDS011;7205;50.864;12.766;2023-02-28T14:32:13;8.13;;;7.17;;
14241;SDS011;7205;50.864;12.766;2023-02-28T14:38:13;10.10;;;7.47;;
14241;SDS011;7205;50.864;12.766;2023-02-28T14:40:54;9.57;;;7.40;;
14241;SDS011;7205;50.864;12.766;2023-02-28T14:43:24;10.23;;;7.70;;
14241;SDS011;7205;50.864;12.766;2023-02-28T14:45:59;7.90;;;7.07;;
14241;SDS011;7205;50.864;12.766;2023-02-28T14:48:33;9.63;;;8.10;;
14241;SDS011;7205;50.864;12.766;2023-02-28T14:51:17;8.37;;;7.47;;
14241;SDS011;7205;50.864;12.766;2023-02-28T14:54:00;8.90;;;7.43;;
14241;SDS011;7205;50.864;12.766;2023-02-28T15:00:26;9.93;;;8.20;;
14241;SDS011;7205;50.864;12.766;2023-02-28T15:03:30;10.43;;;8.37;;
14241;SDS011;7205;50.864;12.766;2023-02-28T15:06:03;8.20;;;7.40;;
14241;SDS011;7205;50.864;12.766;2023-02-28T15:09:07;7.27;;;6.30;;
14241;SDS011;7205;50.864;12.766;2023-02-28T15:11:37;7.90;;;6.83;;
14241;SDS011;7205;50.864;12.766;2023-02-28T15:14:05;8.23;;;6.93;;
14241;SDS011;7205;50.864;12.766;2023-02-28T15:16:33;7.60;;;6.63;;
14241;SDS011;7205;50.864;12.766;2023-02-28T15:19:05;10.50;;;7.07;;
14241;SDS011;7205;50.864;12.766;2023-02-28T15:21:34;8.00;;;7.20;;
14241;SDS011;7205;50.864;12.766;2023-02-28T15:24:04;11.43;;;7.77;;
14241;SDS011;7205;50.864;12.766;2023-02-28T15:26:36;10.53;;;8.17;;
14241;SDS011;7205;50.864;12.766;2023-02-28T15:29:06;9.90;;;7.47;;
14241;SDS011;7205;50.864;12.766;2023-02-28T15:31:42;9.00;;;7.07;;
14241;SDS011;7205;50.864;12.766;2023-02-28T15:34:15;9.70;;;7.70;;
14241;SDS011;7205;50.864;12.766;2023-02-28T15:36:45;8.23;;;7.33;;
14241;SDS011;7205;50.864;12.766;2023-02-28T15:39:19;8.13;;;7.33;;
14241;SDS011;7205;50.864;12.766;2023-02-28T15:41:47;7.70;;;6.90;;
14241;SDS011;7205;50.864;12.766;2023-02-28T15:44:15;8.67;;;7.77;;
14241;SDS011;7205;50.864;12.766;2023-02-28T15:46:58;10.50;;;8.00;;
14241;SDS011;7205;50.864;12.766;2023-02-28T15:49:27;8.63;;;7.83;;
14241;SDS011;7205;50.864;12.766;2023-02-28T15:51:57;10.60;;;8.10;;
14241;SDS011;7205;50.864;12.766;2023-02-28T15:54:27;13.10;;;9.57;;
14241;SDS011;7205;50.864;12.766;2023-02-28T15:56:56;11.03;;;8.50;;
14241;SDS011;7205;50.864;12.766;2023-02-28T15:59:27;10.00;;;8.07;;
14241;SDS011;7205;50.864;12.766;2023-02-28T16:02:11;14.60;;;9.20;;
14241;SDS011;7205;50.864;12.766;2023-02-28T16:04:58;11.57;;;8.60;;
14241;SDS011;7205;50.864;12.766;2023-02-28T16:07:44;11.87;;;9.20;;
14241;SDS011;7205;50.864;12.766;2023-02-28T16:10:12;11.37;;;8.83;;
14241;SDS011;7205;50.864;12.766;2023-02-28T16:12:40;11.77;;;9.60;;
14241;SDS011;7205;50.864;12.766;2023-02-28T16:15:09;12.50;;;9.47;;
14241;SDS011;7205;50.864;12.766;2023-02-28T16:17:46;12.17;;;9.50;;
14241;SDS011;7205;50.864;12.766;2023-02-28T16:20:14;10.40;;;9.20;;
14241;SDS011;7205;50.864;12.766;2023-02-28T16:22:42;9.87;;;8.47;;
14241;SDS011;7205;50.864;12.766;2023-02-28T16:25:11;10.43;;;8.63;;
14241;SDS011;7205;50.864;12.766;2023-02-28T16:27:39;11.13;;;9.67;;
14241;SDS011;7205;50.864;12.766;2023-02-28T16:30:07;13.20;;;9.40;;
14241;SDS011;7205;50.864;12.766;2023-02-28T16:32:41;12.67;;;9.23;;
14241;SDS011;7205;50.864;12.766;2023-02-28T16:35:10;10.57;;;9.10;;
14241;SDS011;7205;50.864;12.766;2023-02-28T16:37:39;12.43;;;9.63;;
14241;SDS011;7205;50.864;12.766;2023-02-28T16:40:06;15.30;;;10.20;;
14241;SDS011;7205;50.864;12.766;2023-02-28T16:42:39;13.83;;;9.77;;
14241;SDS011;7205;50.864;12.766;2023-02-28T16:45:10;11.47;;;9.00;;
14241;SDS011;7205;50.864;12.766;2023-02-28T16:47:41;13.67;;;10.80;;
14241;SDS011;7205;50.864;12.766;2023-02-28T16:50:13;12.43;;;11.13;;
14241;SDS011;7205;50.864;12.766;2023-02-28T16:52:42;11.40;;;9.97;;
14241;SDS011;7205;50.864;12.766;2023-02-28T16:55:09;13.43;;;10.40;;
14241;SDS011;7205;50.864;12.766;2023-02-28T16:57:39;11.67;;;10.17;;
14241;SDS011;7205;50.864;12.766;2023-02-28T17:00:07;14.20;;;10.13;;